Time;durP1;ratioP1;P1;durP2;ratioP2;P2;SDS_P1;SDS_P2;PMS_P1;PMS_P2;Temp;Humidity;BMP_temperature;BMP_pressure;BME280_temperature;BME280_humidity;BME280_pressure;Samples;Min_cycle;Max_cycle;Signal;HPM_P1;HPM_P2
2022/05/16 01:50:58;;;;;;;1999.90;999.90;;;;;;;;;;4991298;23;20297;-67
2022/05/16 01:53:43;;;;;;;1999.90;999.90;;;;;;;;;;4945344;29;20209;-66
2022/05/16 01:56:28;;;;;;;1999.90;999.90;;;;;;;;;;4937011;29;20233;-66
2022/05/16 01:59:13;;;;;;;1999.90;999.90;;;;;;;;;;4944247;28;20799;-67
2022/05/16 02:01:58;;;;;;;1999.90;999.90;;;;;;;;;;4935379;29;20237;-66
2022/05/16 02:04:43;;;;;;;1999.90;999.90;;;;;;;;;;4935519;29;20269;-66
2022/05/16 02:07:29;;;;;;;1999.90;999.90;;;;;;;;;;4934819;29;20233;-67
2022/05/16 02:10:16;;;;;;;1999.90;999.90;;;;;;;;;;4935174;29;20521;-66
2022/05/16 02:13:03;;;;;;;1999.90;999.90;;;;;;;;;;4936154;29;20213;-67
2022/05/16 02:15:49;;;;;;;1999.90;999.90;;;;;;;;;;4935252;29;20205;-67
2022/05/16 02:18:34;;;;;;;1999.90;999.90;;;;;;;;;;4935227;29;20205;-67
2022/05/16 02:24:42;;;;;;;1999.90;999.90;;;;;;;;;;4931093;29;20992;-66
2022/05/16 02:27:27;;;;;;;1999.90;999.90;;;;;;;;;;4924851;29;20703;-61
2022/05/16 02:30:13;;;;;;;1999.90;999.90;;;;;;;;;;4934787;29;20237;-67
2022/05/16 02:32:58;;;;;;;1999.90;999.90;;;;;;;;;;4936033;29;20583;-67
2022/05/16 02:35:43;;;;;;;1999.90;999.90;;;;;;;;;;4936511;29;20241;-67
2022/05/16 02:38:28;;;;;;;1999.90;999.90;;;;;;;;;;4936136;29;20210;-66
2022/05/16 02:41:14;;;;;;;1999.90;999.90;;;;;;;;;;4936445;29;20514;-67
2022/05/16 02:43:59;;;;;;;1999.90;999.90;;;;;;;;;;4936464;29;20300;-66
2022/05/16 02:46:44;;;;;;;1999.90;999.90;;;;;;;;;;4935128;29;20214;-67
2022/05/16 02:49:31;;;;;;;1999.90;999.90;;;;;;;;;;4933644;29;20612;-66
2022/05/16 02:52:16;;;;;;;1999.90;999.90;;;;;;;;;;4931642;29;20206;-67
2022/05/16 02:55:02;;;;;;;1999.90;999.90;;;;;;;;;;4934596;29;20213;-66
2022/05/16 02:57:48;;;;;;;1999.90;999.90;;;;;;;;;;4934682;29;20321;-67
2022/05/16 03:00:33;;;;;;;1999.90;999.90;;;;;;;;;;4934729;29;20858;-66
2022/05/16 03:03:18;;;;;;;1999.90;999.90;;;;;;;;;;4916987;29;20412;-67
2022/05/16 03:06:04;;;;;;;1999.90;999.90;;;;;;;;;;4916998;29;20206;-67
2022/05/16 03:08:49;;;;;;;1999.90;999.90;;;;;;;;;;4932056;29;20264;-68
2022/05/16 03:11:34;;;;;;;1999.90;999.90;;;;;;;;;;4933707;29;20217;-66
2022/05/16 03:14:20;;;;;;;1999.90;999.90;;;;;;;;;;4932854;29;20209;-67
2022/05/16 03:17:05;;;;;;;1999.90;999.90;;;;;;;;;;4933888;29;20342;-66
2022/05/16 03:19:50;;;;;;;1999.90;999.90;;;;;;;;;;4934937;29;20233;-67
2022/05/16 03:22:35;;;;;;;1999.90;999.90;;;;;;;;;;4946283;29;20262;-67
2022/05/16 03:25:20;;;;;;;1999.90;999.90;;;;;;;;;;4928383;29;20208;-67
2022/05/16 03:28:06;;;;;;;1999.90;999.90;;;;;;;;;;4933967;29;20284;-66
2022/05/16 03:30:53;;;;;;;1999.90;999.90;;;;;;;;;;4935417;29;20221;-67
2022/05/16 03:33:38;;;;;;;1999.90;999.90;;;;;;;;;;4935704;29;20601;-67
2022/05/16 03:36:23;;;;;;;1999.90;999.90;;;;;;;;;;4934594;29;20305;-67
2022/05/16 03:42:11;;;;;;;1999.90;999.90;;;;;;;;;;4935491;29;20229;-67
2022/05/16 03:44:56;;;;;;;1999.90;999.90;;;;;;;;;;4924702;29;20437;-67
2022/05/16 03:47:42;;;;;;;1999.90;999.90;;;;;;;;;;4935077;29;20216;-66
2022/05/16 03:50:27;;;;;;;1999.90;999.90;;;;;;;;;;4935122;29;20241;-67
2022/05/16 03:53:12;;;;;;;1999.90;999.90;;;;;;;;;;4935244;29;20205;-67
2022/05/16 03:55:57;;;;;;;1999.90;999.90;;;;;;;;;;4935181;29;20337;-67
2022/05/16 03:58:42;;;;;;;1999.90;999.90;;;;;;;;;;4934908;29;20229;-67
2022/05/16 04:01:28;;;;;;;1999.90;999.90;;;;;;;;;;4934756;29;20241;-66
2022/05/16 04:04:16;;;;;;;1999.90;999.90;;;;;;;;;;4935068;29;20258;-66
2022/05/16 04:07:01;;;;;;;1999.90;999.90;;;;;;;;;;4931821;29;20217;-67
2022/05/16 04:09:46;;;;;;;1999.90;999.90;;;;;;;;;;4931709;29;20225;-67
2022/05/16 04:12:31;;;;;;;1999.90;999.90;;;;;;;;;;4934357;29;20418;-67
2022/05/16 04:15:15;;;;;;;1999.90;999.90;;;;;;;;;;4935015;29;20212;-67
2022/05/16 04:18:00;;;;;;;1999.90;999.90;;;;;;;;;;4934789;29;20696;-66
2022/05/16 04:20:47;;;;;;;1999.90;999.90;;;;;;;;;;4933670;29;20261;-67
2022/05/16 04:23:32;;;;;;;1999.90;999.90;;;;;;;;;;4934685;29;20333;-67
2022/05/16 04:26:17;;;;;;;1999.90;999.90;;;;;;;;;;4933614;29;20410;-66
2022/05/16 04:29:02;;;;;;;1999.90;999.90;;;;;;;;;;4925450;29;20237;-67
2022/05/16 04:31:50;;;;;;;1999.90;999.90;;;;;;;;;;4934490;29;20217;-67
2022/05/16 04:34:35;;;;;;;1999.90;999.90;;;;;;;;;;4934886;29;20334;-67
2022/05/16 04:37:21;;;;;;;1999.90;999.90;;;;;;;;;;4934632;29;20305;-67
2022/05/16 04:40:09;;;;;;;1999.90;999.90;;;;;;;;;;4934304;29;20225;-67
2022/05/16 04:42:53;;;;;;;1999.90;999.90;;;;;;;;;;4934871;29;20427;-67
2022/05/16 04:45:38;;;;;;;1999.90;999.90;;;;;;;;;;4934614;29;20722;-67
2022/05/16 04:48:23;;;;;;;1999.90;999.90;;;;;;;;;;4934284;29;20242;-67
2022/05/16 04:51:08;;;;;;;1999.90;999.90;;;;;;;;;;4934150;29;20220;-67
2022/05/16 04:53:54;;;;;;;1999.90;999.90;;;;;;;;;;4933169;29;20422;-67
2022/05/16 04:56:39;;;;;;;1999.90;999.90;;;;;;;;;;4938002;29;20285;-67
2022/05/16 04:59:24;;;;;;;1999.90;999.90;;;;;;;;;;4937998;29;20428;-66
2022/05/16 05:02:09;;;;;;;1999.90;999.90;;;;;;;;;;4929170;29;20233;-67
2022/05/16 05:04:54;;;;;;;1999.90;999.90;;;;;;;;;;4937609;29;20415;-67
2022/05/16 05:07:39;;;;;;;1999.90;999.90;;;;;;;;;;4938018;29;20293;-66
2022/05/16 05:16:32;;;;;;;1999.90;999.90;;;;;;;;;;4928556;29;20234;-66
2022/05/16 05:19:17;;;;;;;1999.90;999.90;;;;;;;;;;4918836;29;20238;-67
2022/05/16 05:22:03;;;;;;;1999.90;999.90;;;;;;;;;;4918791;29;20279;-66
2022/05/16 05:24:48;;;;;;;1999.90;999.90;;;;;;;;;;4918865;29;20697;-67
2022/05/16 05:27:34;;;;;;;1999.90;999.90;;;;;;;;;;4918789;29;20655;-67
2022/05/16 05:30:23;;;;;;;1999.90;999.90;;;;;;;;;;4925980;29;20281;-67
2022/05/16 05:33:08;;;;;;;1999.90;999.90;;;;;;;;;;4933948;29;20266;-66
2022/05/16 05:35:53;;;;;;;1999.90;999.90;;;;;;;;;;4918961;29;20325;-67
2022/05/16 05:38:39;;;;;;;1999.90;999.90;;;;;;;;;;4952418;28;20242;-67
2022/05/16 05:41:24;;;;;;;1999.90;999.90;;;;;;;;;;4943415;29;20228;-67
2022/05/16 05:44:11;;;;;;;1999.90;999.90;;;;;;;;;;4929778;29;20306;-67
2022/05/16 05:46:55;;;;;;;1999.90;999.90;;;;;;;;;;4936335;29;21146;-67
2022/05/16 05:49:40;;;;;;;1999.90;999.90;;;;;;;;;;4936992;29;20236;-67
2022/05/16 05:52:28;;;;;;;1999.90;999.90;;;;;;;;;;4937312;29;20215;-66
2022/05/16 05:55:13;;;;;;;1999.90;999.90;;;;;;;;;;4933482;29;20571;-67
2022/05/16 05:57:58;;;;;;;1999.90;999.90;;;;;;;;;;4932292;29;20233;-67
2022/05/16 06:00:45;;;;;;;1999.90;999.90;;;;;;;;;;4933938;29;20249;-67
2022/05/16 06:03:31;;;;;;;1999.90;999.90;;;;;;;;;;4931146;29;20694;-67
2022/05/16 06:06:16;;;;;;;1999.90;999.90;;;;;;;;;;4929246;29;20256;-67
2022/05/16 06:09:01;;;;;;;1999.90;999.90;;;;;;;;;;4935081;29;20723;-66
2022/05/16 06:11:48;;;;;;;1999.90;999.90;;;;;;;;;;4933672;29;20206;-67
2022/05/16 06:14:33;;;;;;;1999.90;999.90;;;;;;;;;;4934437;29;20438;-67
2022/05/16 06:17:20;;;;;;;1999.90;999.90;;;;;;;;;;4935716;29;20340;-66
2022/05/16 06:20:06;;;;;;;1999.90;999.90;;;;;;;;;;4933683;29;20233;-67
2022/05/16 06:22:51;;;;;;;1999.90;999.90;;;;;;;;;;4935222;29;20232;-68
2022/05/16 06:25:39;;;;;;;1999.90;999.90;;;;;;;;;;4930818;29;20417;-67
2022/05/16 06:28:25;;;;;;;1999.90;999.90;;;;;;;;;;4935237;29;20736;-67
2022/05/16 06:31:10;;;;;;;1999.90;999.90;;;;;;;;;;4932090;29;20281;-67
2022/05/16 06:33:56;;;;;;;1999.90;999.90;;;;;;;;;;4935699;29;20220;-67
2022/05/16 06:36:41;;;;;;;1999.90;999.90;;;;;;;;;;4936281;29;20212;-67
2022/05/16 06:39:26;;;;;;;1999.90;999.90;;;;;;;;;;4936042;29;20228;-67
2022/05/16 06:42:11;;;;;;;1999.90;999.90;;;;;;;;;;4936364;29;20264;-67
2022/05/16 06:44:56;;;;;;;1999.90;999.90;;;;;;;;;;4936483;29;20407;-67
2022/05/16 06:47:41;;;;;;;1999.90;999.90;;;;;;;;;;4935994;29;20284;-67
2022/05/16 06:50:27;;;;;;;1999.90;999.90;;;;;;;;;;4936057;29;20646;-67
2022/05/16 06:53:14;;;;;;;1999.90;999.90;;;;;;;;;;4935117;29;20437;-67
2022/05/16 06:56:00;;;;;;;1999.90;999.90;;;;;;;;;;4935761;29;20216;-67
2022/05/16 06:58:45;;;;;;;1999.90;999.90;;;;;;;;;;4934231;29;20236;-67
2022/05/16 07:01:30;;;;;;;1999.90;999.90;;;;;;;;;;4932882;29;20693;-67
2022/05/16 07:04:14;;;;;;;1999.90;999.90;;;;;;;;;;4934373;29;20211;-67
2022/05/16 07:07:01;;;;;;;1999.90;999.90;;;;;;;;;;4934344;29;20295;-67
2022/05/16 07:09:46;;;;;;;1999.90;999.90;;;;;;;;;;4933535;29;20233;-67
2022/05/16 07:12:31;;;;;;;1999.90;999.90;;;;;;;;;;4935835;29;20221;-67
2022/05/16 07:15:16;;;;;;;1999.90;999.90;;;;;;;;;;4935808;29;20281;-67
2022/05/16 07:18:01;;;;;;;1999.90;999.90;;;;;;;;;;4935253;29;20191;-66
2022/05/16 07:20:46;;;;;;;1999.90;999.90;;;;;;;;;;4935683;29;20695;-66
2022/05/16 07:23:32;;;;;;;1999.90;999.90;;;;;;;;;;4935317;29;20234;-66
2022/05/16 07:29:22;;;;;;;1999.90;999.90;;;;;;;;;;4933507;29;20279;-67
2022/05/16 07:32:09;;;;;;;1999.90;999.90;;;;;;;;;;4935527;29;20209;-67
2022/05/16 07:35:00;;;;;;;1999.90;999.90;;;;;;;;;;4916531;29;20214;-67
2022/05/16 07:37:45;;;;;;;1999.90;999.90;;;;;;;;;;4925274;29;20562;-67
2022/05/16 07:40:34;;;;;;;1999.90;999.90;;;;;;;;;;4935065;29;20233;-66
2022/05/16 07:43:19;;;;;;;1999.90;999.90;;;;;;;;;;4935235;29;20607;-67
2022/05/16 07:46:04;;;;;;;1999.90;999.90;;;;;;;;;;4933765;29;20514;-67
2022/05/16 07:48:49;;;;;;;1999.90;999.90;;;;;;;;;;4934785;29;20232;-67
2022/05/16 07:51:34;;;;;;;1999.90;999.90;;;;;;;;;;4935379;29;20760;-66
2022/05/16 07:54:19;;;;;;;1999.90;999.90;;;;;;;;;;4935244;29;20229;-67
2022/05/16 07:57:06;;;;;;;1999.90;999.90;;;;;;;;;;4935337;29;20224;-67
2022/05/16 07:59:51;;;;;;;1999.90;999.90;;;;;;;;;;4934484;29;20241;-67
2022/05/16 08:02:36;;;;;;;1999.90;999.90;;;;;;;;;;4934900;29;20225;-67
2022/05/16 08:05:21;;;;;;;1999.90;999.90;;;;;;;;;;4935005;29;20213;-67
2022/05/16 08:11:11;;;;;;;1999.90;999.90;;;;;;;;;;4934318;29;20449;-67
2022/05/16 08:13:58;;;;;;;1999.90;999.90;;;;;;;;;;4935109;29;20824;-67
2022/05/16 08:16:42;;;;;;;1999.90;999.90;;;;;;;;;;4934595;29;20229;-66
2022/05/16 08:19:29;;;;;;;1999.90;999.90;;;;;;;;;;4934315;29;20235;-66
2022/05/16 08:22:14;;;;;;;1999.90;999.90;;;;;;;;;;4932009;29;20763;-67
2022/05/16 08:24:59;;;;;;;1999.90;999.90;;;;;;;;;;4933361;29;20413;-67
2022/05/16 08:27:44;;;;;;;1999.90;999.90;;;;;;;;;;4934492;29;20233;-67
2022/05/16 08:30:31;;;;;;;1999.90;999.90;;;;;;;;;;4934349;29;20232;-66
2022/05/16 08:33:16;;;;;;;1999.90;999.90;;;;;;;;;;4934433;29;20225;-67
2022/05/16 08:42:09;;;;;;;1999.90;999.90;;;;;;;;;;4932322;29;20256;-67
2022/05/16 08:44:58;;;;;;;1999.90;999.90;;;;;;;;;;4933153;29;20213;-66
2022/05/16 08:47:50;;;;;;;1999.90;999.90;;;;;;;;;;4914898;29;20404;-67
2022/05/16 08:50:40;;;;;;;1999.90;999.90;;;;;;;;;;4920810;29;20787;-68
2022/05/16 08:53:27;;;;;;;1999.90;999.90;;;;;;;;;;4926563;29;20198;-67
2022/05/16 08:56:16;;;;;;;1999.90;999.90;;;;;;;;;;4931578;29;20209;-67
2022/05/16 08:59:03;;;;;;;1999.90;999.90;;;;;;;;;;4925405;29;20630;-67
2022/05/16 09:01:50;;;;;;;1999.90;999.90;;;;;;;;;;4930699;29;20800;-67
2022/05/16 09:04:43;;;;;;;1999.90;999.90;;;;;;;;;;4929835;29;20420;-67
2022/05/16 09:07:30;;;;;;;1999.90;999.90;;;;;;;;;;4934510;29;20249;-68
2022/05/16 09:10:16;;;;;;;1999.90;999.90;;;;;;;;;;4934242;29;20225;-67
2022/05/16 09:13:06;;;;;;;1999.90;999.90;;;;;;;;;;4933319;29;20213;-68
2022/05/16 09:15:57;;;;;;;1999.90;999.90;;;;;;;;;;4934300;29;20581;-67
2022/05/16 09:18:46;;;;;;;1999.90;999.90;;;;;;;;;;4931858;29;20302;-71
2022/05/16 09:21:34;;;;;;;1999.90;999.90;;;;;;;;;;4930166;29;20206;-71
2022/05/16 09:24:23;;;;;;;1999.90;999.90;;;;;;;;;;4934049;29;20228;-71
2022/05/16 09:27:10;;;;;;;1999.90;999.90;;;;;;;;;;4934091;29;20431;-72
2022/05/16 09:29:55;;;;;;;1999.90;999.90;;;;;;;;;;4933779;29;20220;-72
2022/05/16 09:32:42;;;;;;;1999.90;999.90;;;;;;;;;;4926306;29;20833;-70
2022/05/16 09:35:44;;;;;;;1999.90;999.90;;;;;;;;;;4934070;29;20210;-70
2022/05/16 09:38:31;;;;;;;1999.90;999.90;;;;;;;;;;4932679;29;20216;-71
2022/05/16 09:41:20;;;;;;;1999.90;999.90;;;;;;;;;;4932615;29;20281;-71
2022/05/16 09:44:06;;;;;;;1999.90;999.90;;;;;;;;;;4936475;29;20240;-70
2022/05/16 09:46:52;;;;;;;1999.90;999.90;;;;;;;;;;4937584;29;20277;-70
2022/05/16 09:49:38;;;;;;;1999.90;999.90;;;;;;;;;;4935688;29;20612;-72
2022/05/16 09:52:23;;;;;;;1999.90;999.90;;;;;;;;;;4928940;29;20318;-71
2022/05/16 09:55:11;;;;;;;1999.90;999.90;;;;;;;;;;4937008;29;20216;-71
2022/05/16 09:57:57;;;;;;;1999.90;999.90;;;;;;;;;;4935613;29;20225;-70
2022/05/16 10:00:44;;;;;;;1999.90;999.90;;;;;;;;;;4933563;29;20225;-71
2022/05/16 10:03:31;;;;;;;1999.90;999.90;;;;;;;;;;4918181;29;20343;-71
2022/05/16 10:06:27;;;;;;;1999.90;999.90;;;;;;;;;;4918196;29;20214;-72
2022/05/16 10:09:14;;;;;;;1999.90;999.90;;;;;;;;;;4924224;29;20651;-72
2022/05/16 10:12:00;;;;;;;1999.90;999.90;;;;;;;;;;4934394;29;20213;-71
2022/05/16 10:14:46;;;;;;;1999.90;999.90;;;;;;;;;;4934619;29;20273;-71
2022/05/16 10:17:33;;;;;;;1999.90;999.90;;;;;;;;;;4936210;29;20232;-71
2022/05/16 10:20:21;;;;;;;1999.90;999.90;;;;;;;;;;4926766;29;20430;-71
2022/05/16 10:23:07;;;;;;;1999.90;999.90;;;;;;;;;;4939854;29;20339;-70
2022/05/16 10:25:55;;;;;;;1999.90;999.90;;;;;;;;;;4933356;29;20240;-71
2022/05/16 10:28:42;;;;;;;1999.90;999.90;;;;;;;;;;4936230;29;20727;-71
2022/05/16 10:34:38;;;;;;;1999.90;999.90;;;;;;;;;;4933533;29;20516;-71
2022/05/16 10:37:24;;;;;;;1999.90;999.90;;;;;;;;;;4932854;29;20791;-71
2022/05/16 10:40:11;;;;;;;1999.90;999.90;;;;;;;;;;4935835;29;20234;-71
2022/05/16 10:43:05;;;;;;;1999.90;999.90;;;;;;;;;;4932721;29;20229;-71
2022/05/16 10:45:55;;;;;;;1999.90;999.90;;;;;;;;;;4933957;29;20953;-70
2022/05/16 10:48:46;;;;;;;1999.90;999.90;;;;;;;;;;4934244;29;20306;-71
2022/05/16 10:51:36;;;;;;;1999.90;999.90;;;;;;;;;;4934978;29;20209;-72
2022/05/16 10:54:21;;;;;;;1999.90;999.90;;;;;;;;;;4934544;29;21009;-71
2022/05/16 10:57:14;;;;;;;1999.90;999.90;;;;;;;;;;4933415;29;20225;-70
2022/05/16 11:00:09;;;;;;;1999.90;999.90;;;;;;;;;;4929708;29;20912;-70
2022/05/16 11:03:03;;;;;;;1999.90;999.90;;;;;;;;;;4932979;29;20587;-71
2022/05/16 11:05:57;;;;;;;1999.90;999.90;;;;;;;;;;4934772;29;20704;-70
2022/05/16 11:08:46;;;;;;;1999.90;999.90;;;;;;;;;;4934007;29;20612;-70
2022/05/16 11:11:35;;;;;;;1999.90;999.90;;;;;;;;;;4934369;29;20218;-69
2022/05/16 11:14:23;;;;;;;1999.90;999.90;;;;;;;;;;4933037;29;20707;-71
2022/05/16 11:17:11;;;;;;;1999.90;999.90;;;;;;;;;;4934585;29;20279;-72
2022/05/16 11:20:04;;;;;;;1999.90;999.90;;;;;;;;;;4931485;29;20236;-73
2022/05/16 11:22:52;;;;;;;1999.90;999.90;;;;;;;;;;4932096;29;20205;-72
2022/05/16 11:25:40;;;;;;;1999.90;999.90;;;;;;;;;;4933111;29;20200;-70
2022/05/16 11:28:28;;;;;;;1999.90;999.90;;;;;;;;;;4933688;29;20294;-70
2022/05/16 11:31:15;;;;;;;1999.90;999.90;;;;;;;;;;4930806;29;20281;-71
2022/05/16 11:34:00;;;;;;;1999.90;999.90;;;;;;;;;;4933875;29;20204;-70
2022/05/16 11:36:50;;;;;;;1999.90;999.90;;;;;;;;;;4933079;29;20651;-69
2022/05/16 11:39:38;;;;;;;1999.90;999.90;;;;;;;;;;4933755;29;20225;-71
2022/05/16 11:42:28;;;;;;;1999.90;999.90;;;;;;;;;;4934002;29;20293;-71
2022/05/16 11:45:20;;;;;;;1999.90;999.90;;;;;;;;;;4934003;29;20634;-71
2022/05/16 11:48:16;;;;;;;1999.90;999.90;;;;;;;;;;4931979;29;20293;-71
2022/05/16 11:51:08;;;;;;;1999.90;999.90;;;;;;;;;;4929804;29;20201;-73
2022/05/16 11:53:58;;;;;;;1999.90;999.90;;;;;;;;;;4932172;29;20587;-71
2022/05/16 12:02:52;;;;;;;1999.90;999.90;;;;;;;;;;4934948;29;20616;-71
2022/05/16 12:05:39;;;;;;;1999.90;999.90;;;;;;;;;;4932067;29;20214;-71
2022/05/16 12:08:38;;;;;;;1999.90;999.90;;;;;;;;;;4924998;29;20213;-70
2022/05/16 12:11:27;;;;;;;1999.90;999.90;;;;;;;;;;4930028;29;20205;-71
2022/05/16 12:14:22;;;;;;;1999.90;999.90;;;;;;;;;;4933797;29;20273;-70
2022/05/16 12:17:22;;;;;;;1999.90;999.90;;;;;;;;;;4927299;29;20708;-70
2022/05/16 12:20:10;;;;;;;1999.90;999.90;;;;;;;;;;4933100;29;20430;-70
2022/05/16 12:22:55;;;;;;;1999.90;999.90;;;;;;;;;;4933836;29;20209;-70
2022/05/16 12:25:42;;;;;;;1999.90;999.90;;;;;;;;;;4934672;29;20213;-70
2022/05/16 12:28:30;;;;;;;1999.90;999.90;;;;;;;;;;4915701;29;20262;-70
2022/05/16 12:31:22;;;;;;;1999.90;999.90;;;;;;;;;;4915505;29;20229;-70
2022/05/16 12:34:08;;;;;;;1999.90;999.90;;;;;;;;;;4915516;29;20210;-70
2022/05/16 12:36:52;;;;;;;1999.90;999.90;;;;;;;;;;4930256;29;20209;-70
2022/05/16 12:39:39;;;;;;;1999.90;999.90;;;;;;;;;;4933027;29;20265;-70
2022/05/16 12:42:34;;;;;;;1999.90;999.90;;;;;;;;;;4933141;29;20258;-69
2022/05/16 12:45:29;;;;;;;1999.90;999.90;;;;;;;;;;4932755;29;20437;-70
2022/05/16 12:48:24;;;;;;;1999.90;999.90;;;;;;;;;;4925986;29;20224;-70
2022/05/16 12:51:16;;;;;;;1999.90;999.90;;;;;;;;;;4953781;29;20221;-70
2022/05/16 12:54:09;;;;;;;1999.90;999.90;;;;;;;;;;4953820;29;20216;-69
2022/05/16 12:56:54;;;;;;;1999.90;999.90;;;;;;;;;;4933967;29;20225;-71
2022/05/16 12:59:47;;;;;;;1999.90;999.90;;;;;;;;;;4934086;29;20236;-70
2022/05/16 13:02:39;;;;;;;1999.90;999.90;;;;;;;;;;4923209;29;20277;-70
2022/05/16 13:05:28;;;;;;;1999.90;999.90;;;;;;;;;;4923961;29;20304;-70
2022/05/16 13:08:19;;;;;;;1999.90;999.90;;;;;;;;;;4933706;29;20205;-70
2022/05/16 13:11:11;;;;;;;1999.90;999.90;;;;;;;;;;4933262;29;20217;-70
2022/05/16 13:14:05;;;;;;;1999.90;999.90;;;;;;;;;;4932422;29;20213;-70
2022/05/16 13:16:52;;;;;;;1999.90;999.90;;;;;;;;;;4936515;29;20604;-70
2022/05/16 13:19:43;;;;;;;1999.90;999.90;;;;;;;;;;4934767;29;20593;-70
2022/05/16 13:22:35;;;;;;;1999.90;999.90;;;;;;;;;;4936840;29;20703;-70
2022/05/16 13:25:22;;;;;;;1999.90;999.90;;;;;;;;;;4933347;29;20926;-70
2022/05/16 13:31:13;;;;;;;1999.90;999.90;;;;;;;;;;4930261;29;20232;-70
2022/05/16 13:33:57;;;;;;;1999.90;999.90;;;;;;;;;;4935106;29;20711;-69
2022/05/16 13:36:46;;;;;;;1999.90;999.90;;;;;;;;;;4927946;29;20469;-71
2022/05/16 13:39:34;;;;;;;1999.90;999.90;;;;;;;;;;4930746;29;20232;-69
2022/05/16 13:42:21;;;;;;;1999.90;999.90;;;;;;;;;;4932990;29;20762;-70
2022/05/16 13:45:08;;;;;;;1999.90;999.90;;;;;;;;;;4937113;29;20240;-70
2022/05/16 13:47:53;;;;;;;1999.90;999.90;;;;;;;;;;4937364;29;20218;-70
2022/05/16 13:50:39;;;;;;;1999.90;999.90;;;;;;;;;;4937251;29;20252;-70
2022/05/16 13:53:26;;;;;;;1999.90;999.90;;;;;;;;;;4937283;29;20228;-70
2022/05/16 13:56:11;;;;;;;1999.90;999.90;;;;;;;;;;4937345;29;20665;-70
2022/05/16 13:58:56;;;;;;;1999.90;999.90;;;;;;;;;;4936965;29;20794;-70
2022/05/16 14:01:49;;;;;;;1999.90;999.90;;;;;;;;;;4936948;29;20231;-70
2022/05/16 14:04:37;;;;;;;1999.90;999.90;;;;;;;;;;4937091;29;20230;-70
2022/05/16 14:07:23;;;;;;;1999.90;999.90;;;;;;;;;;4937246;29;20346;-70
2022/05/16 14:10:11;;;;;;;1999.90;999.90;;;;;;;;;;4936655;29;20235;-70
2022/05/16 14:12:58;;;;;;;1999.90;999.90;;;;;;;;;;4936611;29;20217;-70
2022/05/16 14:15:48;;;;;;;1999.90;999.90;;;;;;;;;;4936758;29;20739;-70
2022/05/16 14:18:37;;;;;;;1999.90;999.90;;;;;;;;;;4935015;29;20410;-70
2022/05/16 14:21:24;;;;;;;1999.90;999.90;;;;;;;;;;4936799;29;20207;-70
2022/05/16 14:24:09;;;;;;;1999.90;999.90;;;;;;;;;;4936628;29;20221;-70
2022/05/16 14:26:56;;;;;;;1999.90;999.90;;;;;;;;;;4936439;29;20239;-70
2022/05/16 14:29:41;;;;;;;1999.90;999.90;;;;;;;;;;4935651;29;20226;-70
2022/05/16 14:32:26;;;;;;;1999.90;999.90;;;;;;;;;;4934671;29;20298;-70
2022/05/16 14:35:12;;;;;;;1999.90;999.90;;;;;;;;;;4917379;29;20316;-70
2022/05/16 14:38:01;;;;;;;1999.90;999.90;;;;;;;;;;4930934;29;20358;-70
2022/05/16 14:40:48;;;;;;;1999.90;999.90;;;;;;;;;;4933977;29;20763;-69
2022/05/16 14:43:37;;;;;;;1999.90;999.90;;;;;;;;;;4936357;29;20209;-70
2022/05/16 14:49:26;;;;;;;1999.90;999.90;;;;;;;;;;4935768;29;20228;-70
2022/05/16 14:52:11;;;;;;;1999.90;999.90;;;;;;;;;;4936229;29;20205;-70
2022/05/16 14:54:57;;;;;;;1999.90;999.90;;;;;;;;;;4936551;29;20242;-70
2022/05/16 14:57:43;;;;;;;1999.90;999.90;;;;;;;;;;4934339;29;20551;-70
2022/05/16 15:06:37;;;;;;;1999.90;999.90;;;;;;;;;;4936227;29;20209;-70
2022/05/16 15:09:22;;;;;;;1999.90;999.90;;;;;;;;;;4932992;29;20605;-70
2022/05/16 15:12:08;;;;;;;1999.90;999.90;;;;;;;;;;4928915;29;20333;-70
2022/05/16 15:14:53;;;;;;;1999.90;999.90;;;;;;;;;;4936707;29;20299;-70
2022/05/16 15:17:40;;;;;;;1999.90;999.90;;;;;;;;;;4935750;29;20260;-70
2022/05/16 15:20:25;;;;;;;1999.90;999.90;;;;;;;;;;4935341;29;20723;-70
2022/05/16 15:23:10;;;;;;;1999.90;999.90;;;;;;;;;;4934490;29;20209;-70
2022/05/16 15:25:55;;;;;;;1999.90;999.90;;;;;;;;;;4933184;29;20321;-70
2022/05/16 15:28:42;;;;;;;1999.90;999.90;;;;;;;;;;4933848;29;20213;-70
2022/05/16 15:31:27;;;;;;;1999.90;999.90;;;;;;;;;;4929636;29;20216;-70
2022/05/16 15:34:15;;;;;;;1999.90;999.90;;;;;;;;;;4927905;29;20212;-69
2022/05/16 15:37:00;;;;;;;1999.90;999.90;;;;;;;;;;4932127;29;20802;-69
2022/05/16 15:39:46;;;;;;;1999.90;999.90;;;;;;;;;;4934782;29;20228;-70
2022/05/16 15:42:31;;;;;;;1999.90;999.90;;;;;;;;;;4934424;29;20212;-69
2022/05/16 15:45:17;;;;;;;1999.90;999.90;;;;;;;;;;4930429;29;20236;-70
2022/05/16 15:48:03;;;;;;;1999.90;999.90;;;;;;;;;;4934828;29;20331;-70
2022/05/16 15:50:50;;;;;;;1999.90;999.90;;;;;;;;;;4934976;29;20260;-70
2022/05/16 15:53:36;;;;;;;1999.90;999.90;;;;;;;;;;4935032;29;20367;-70
2022/05/16 15:56:21;;;;;;;1999.90;999.90;;;;;;;;;;4934957;29;20210;-70
2022/05/16 15:59:06;;;;;;;1999.90;999.90;;;;;;;;;;4934806;29;20907;-70
2022/05/16 16:01:51;;;;;;;1999.90;999.90;;;;;;;;;;4934965;29;20211;-70
2022/05/16 16:10:47;;;;;;;1999.90;999.90;;;;;;;;;;4934695;29;20276;-69
2022/05/16 16:13:32;;;;;;;1999.90;999.90;;;;;;;;;;4933870;29;20488;-70
2022/05/16 16:16:19;;;;;;;1999.90;999.90;;;;;;;;;;4935936;29;20488;-70
2022/05/16 16:19:07;;;;;;;1999.90;999.90;;;;;;;;;;4933571;29;20617;-70
2022/05/16 16:21:53;;;;;;;1999.90;999.90;;;;;;;;;;4932261;29;20713;-69
2022/05/16 16:24:40;;;;;;;1999.90;999.90;;;;;;;;;;4932594;29;20231;-70
2022/05/16 16:27:27;;;;;;;1999.90;999.90;;;;;;;;;;4917795;29;20308;-67
2022/05/16 16:30:14;;;;;;;1999.90;999.90;;;;;;;;;;4934120;29;20321;-67
2022/05/16 16:33:00;;;;;;;1999.90;999.90;;;;;;;;;;4934631;29;20206;-67
2022/05/16 16:35:45;;;;;;;1999.90;999.90;;;;;;;;;;4933237;29;20217;-67
2022/05/16 16:38:30;;;;;;;1999.90;999.90;;;;;;;;;;4931223;29;20873;-67
2022/05/16 16:41:16;;;;;;;1999.90;999.90;;;;;;;;;;4933087;29;20779;-66
2022/05/16 16:44:01;;;;;;;1999.90;999.90;;;;;;;;;;4932235;29;20939;-67
2022/05/16 16:46:49;;;;;;;1999.90;999.90;;;;;;;;;;4922561;29;20781;-67
2022/05/16 16:49:34;;;;;;;1999.90;999.90;;;;;;;;;;4933863;29;20306;-66
2022/05/16 16:58:26;;;;;;;1999.90;999.90;;;;;;;;;;4936510;29;20431;-66
2022/05/16 17:01:13;;;;;;;1999.90;999.90;;;;;;;;;;4937971;29;20592;-66
2022/05/16 17:03:58;;;;;;;1999.90;999.90;;;;;;;;;;4937189;29;20226;-67
2022/05/16 17:06:43;;;;;;;1999.90;999.90;;;;;;;;;;4937977;29;20849;-67
2022/05/16 17:09:28;;;;;;;1999.90;999.90;;;;;;;;;;4937597;29;20229;-67
2022/05/16 17:12:13;;;;;;;1999.90;999.90;;;;;;;;;;4938054;29;20210;-67
2022/05/16 17:14:59;;;;;;;1999.90;999.90;;;;;;;;;;4936881;29;20218;-67
2022/05/16 17:17:45;;;;;;;1999.90;999.90;;;;;;;;;;4937760;29;20219;-67
2022/05/16 17:20:31;;;;;;;1999.90;999.90;;;;;;;;;;4937873;29;20258;-66
2022/05/16 17:23:16;;;;;;;1999.90;999.90;;;;;;;;;;4936357;29;20582;-67
2022/05/16 17:26:02;;;;;;;1999.90;999.90;;;;;;;;;;4935709;29;20259;-66
2022/05/16 17:28:50;;;;;;;1999.90;999.90;;;;;;;;;;4937432;29;20682;-65
2022/05/16 17:31:36;;;;;;;1999.90;999.90;;;;;;;;;;4938857;29;20221;-66
2022/05/16 17:34:22;;;;;;;1999.90;999.90;;;;;;;;;;4930430;29;20205;-66
2022/05/16 17:37:07;;;;;;;1999.90;999.90;;;;;;;;;;4933980;29;20455;-66
2022/05/16 17:39:52;;;;;;;1999.90;999.90;;;;;;;;;;4930460;29;20378;-66
2022/05/16 17:42:38;;;;;;;1999.90;999.90;;;;;;;;;;4932595;29;20586;-67
2022/05/16 17:45:23;;;;;;;1999.90;999.90;;;;;;;;;;4933268;29;20297;-65
2022/05/16 17:48:10;;;;;;;1999.90;999.90;;;;;;;;;;4942670;29;20606;-67
2022/05/16 17:50:56;;;;;;;1999.90;999.90;;;;;;;;;;4937080;29;20296;-66
2022/05/16 17:53:41;;;;;;;1999.90;999.90;;;;;;;;;;4937108;29;20221;-67
2022/05/16 17:56:26;;;;;;;1999.90;999.90;;;;;;;;;;4934782;29;20621;-67
2022/05/16 17:59:11;;;;;;;1999.90;999.90;;;;;;;;;;4930138;29;20242;-67
2022/05/16 18:01:57;;;;;;;1999.90;999.90;;;;;;;;;;4930983;29;20221;-66
2022/05/16 18:04:43;;;;;;;1999.90;999.90;;;;;;;;;;4932742;29;20213;-67
2022/05/16 18:07:28;;;;;;;1999.90;999.90;;;;;;;;;;4936803;29;20258;-66
2022/05/16 18:10:13;;;;;;;1999.90;999.90;;;;;;;;;;4928020;29;20603;-67
2022/05/16 18:12:57;;;;;;;1999.90;999.90;;;;;;;;;;4934915;29;20225;-67
2022/05/16 18:15:42;;;;;;;1999.90;999.90;;;;;;;;;;4924787;29;20250;-66
2022/05/16 18:18:27;;;;;;;1999.90;999.90;;;;;;;;;;4916361;29;20411;-66